Overview Statistics Trail Chart Weather Telemetry Raw packets
 

This is the latest recevied weather packets stored in our database for station/object OE3XAM-13. If no packets are shown the sender has not sent any weather packets the latest 10 day(s).

<< 1 2 3 4 5 6 >>
Time Temp. Humidity Pressure Rain* Wind** Luminosity Snow
1788505888 21.67° C 63% 985 hPa 0 mm - - -
1788504088 20° C 73% 985 hPa 0 mm - - -
1788502288 18.89° C 79% 985 hPa 0 mm - - -
1788500488 17.78° C 82% 985 hPa 0 mm - - -
1788498688 17.22° C 83% 984 hPa 0 mm - - -
1788496888 17.22° C 83% 985 hPa 0 mm - - -
1788495088 17.22° C 83% 984 hPa 0 mm - - -
1788493288 17.22° C 84% 984 hPa 0 mm - - -
1788491488 17.22° C 84% 984 hPa 0 mm - - -
1788489688 17.22° C 84% 984 hPa 0 mm - - -
1788487888 17.22° C 84% 985 hPa 0 mm - - -
1788486088 17.22° C 84% 985 hPa 0 mm - - -
1788484288 17.22° C 84% 985 hPa 0 mm - - -
1788482488 17.22° C 84% 985 hPa 0 mm - - -
1788480688 17.22° C 83% 985 hPa 0 mm - - -
1788478888 17.22° C 84% 985 hPa 0 mm - - -
1788477088 17.22° C 83% 986 hPa 0 mm - - -
1788475288 17.22° C 82% 986 hPa 0 mm - - -
1788473488 17.22° C 81% 985 hPa 0 mm - - -
1788471688 17.22° C 81% 986 hPa 0 mm - - -
1788469888 17.22° C 80% 985 hPa 0.51 mm - - -
1788468088 17.78° C 77% 986 hPa 0.51 mm - - -
1788466288 18.33° C 74% 986 hPa 0 mm - - -
1788464488 18.33° C 71% 986 hPa 0 mm - - -
1788462688 18.89° C 74% 985 hPa 0.25 mm - - -

* Rain latest hour (hover to see other rain measurements)
** Current wind speed in m/s (hover to see current wind gust speed)